createdAt,value
2023-03-31T00:03:10.544Z,39.55
2023-03-31T00:08:14.427Z,39.51
2023-03-31T00:13:17.073Z,39.60
2023-03-31T00:18:19.155Z,39.32
2023-03-31T00:23:28.350Z,39.54
2023-03-31T00:28:30.670Z,39.59
2023-03-31T00:33:32.821Z,40.28
2023-03-31T00:38:35.603Z,39.89
2023-03-31T00:43:39.120Z,40.32
2023-03-31T00:48:51.265Z,39.83
2023-03-31T00:54:05.322Z,41.50
2023-03-31T00:59:11.901Z,41.68
2023-03-31T01:04:17.050Z,41.89
2023-03-31T01:09:20.563Z,42.23
2023-03-31T01:14:22.786Z,42.20
2023-03-31T01:19:41.535Z,42.19
2023-03-31T01:25:16.095Z,41.37
2023-03-31T01:30:37.650Z,41.32
2023-03-31T01:35:54.912Z,41.15
2023-03-31T01:41:15.946Z,40.64
2023-03-31T01:46:37.912Z,41.45
2023-03-31T01:51:54.258Z,41.41
2023-03-31T01:57:02.209Z,41.66
2023-03-31T02:02:17.508Z,41.91
2023-03-31T02:07:26.622Z,41.96
2023-03-31T02:12:33.547Z,42.94
2023-03-31T02:17:40.578Z,43.41
2023-03-31T02:22:46.974Z,43.43
2023-03-31T02:28:00.529Z,42.74
2023-03-31T02:33:05.630Z,42.25
2023-03-31T02:38:09.831Z,42.49
2023-03-31T02:43:12.294Z,41.72
2023-03-31T02:48:28.565Z,41.52
2023-03-31T02:53:51.460Z,41.80
2023-03-31T02:59:08.896Z,41.74
2023-03-31T03:04:19.856Z,41.48
2023-03-31T03:09:52.784Z,41.51
2023-03-31T03:15:06.911Z,41.93
2023-03-31T03:20:09.973Z,41.81
2023-03-31T03:25:13.964Z,41.79
2023-03-31T03:30:16.092Z,42.27
2023-03-31T03:35:18.516Z,42.79
2023-03-31T03:40:20.610Z,42.72
2023-03-31T03:45:22.673Z,42.97
2023-03-31T03:50:24.835Z,42.87
2023-03-31T03:55:26.926Z,43.90
2023-03-31T04:00:30.078Z,43.67
2023-03-31T04:05:32.172Z,43.87
2023-03-31T04:10:35.645Z,44.27
2023-03-31T04:15:37.761Z,44.76
2023-03-31T04:20:39.928Z,45.42
2023-03-31T04:25:46.814Z,45.05
2023-03-31T04:30:49.472Z,44.81
2023-03-31T04:35:52.900Z,44.98
2023-03-31T04:40:55.268Z,45.35
2023-03-31T04:45:57.568Z,46.23
2023-03-31T04:50:59.852Z,45.66
2023-03-31T04:56:02.249Z,44.91
2023-03-31T05:01:07.625Z,45.13
2023-03-31T05:06:09.923Z,45.17
2023-03-31T05:11:12.114Z,44.64
2023-03-31T05:16:15.075Z,44.68
2023-03-31T05:21:20.091Z,44.31
2023-03-31T05:26:25.319Z,43.95
2023-03-31T05:31:27.681Z,45.69
2023-03-31T05:36:29.906Z,45.05
2023-03-31T05:41:32.252Z,44.36
2023-03-31T05:46:34.359Z,44.27
2023-03-31T05:51:36.759Z,43.94
2023-03-31T05:56:39.069Z,43.63
2023-03-31T06:01:41.984Z,43.19
2023-03-31T06:06:44.693Z,43.07
2023-03-31T06:11:49.436Z,42.61
2023-03-31T06:16:52.858Z,42.25
2023-03-31T06:21:55.127Z,41.83
2023-03-31T06:26:57.209Z,41.73
2023-03-31T06:31:59.734Z,41.40
2023-03-31T06:37:02.128Z,41.59
2023-03-31T06:42:04.515Z,41.88
2023-03-31T06:47:06.649Z,41.94
2023-03-31T06:52:08.781Z,42.06
2023-03-31T06:57:11.218Z,42.84
2023-03-31T07:02:13.457Z,42.22
2023-03-31T07:07:15.743Z,41.87
2023-03-31T07:12:18.033Z,42.15
2023-03-31T07:17:20.583Z,42.04
2023-03-31T07:22:22.785Z,42.70
2023-03-31T07:27:26.363Z,43.54
2023-03-31T07:32:29.940Z,42.74
2023-03-31T07:37:36.851Z,42.17
2023-03-31T07:42:39.647Z,41.72
2023-03-31T07:47:42.636Z,42.02
2023-03-31T07:58:12.412Z,41.41
2023-03-31T08:03:14.643Z,40.82
2023-03-31T08:08:16.887Z,40.47
2023-03-31T08:13:19.161Z,39.86
2023-03-31T08:18:21.409Z,39.60
2023-03-31T08:23:27.755Z,38.89
2023-03-31T08:28:29.973Z,38.56
2023-03-31T08:33:32.548Z,38.29
2023-03-31T08:38:37.985Z,38.16
2023-03-31T08:43:44.214Z,38.06
2023-03-31T08:48:51.553Z,37.47
2023-03-31T08:54:04.913Z,37.59
2023-03-31T08:59:16.943Z,37.56
2023-03-31T09:04:34.126Z,37.40
2023-03-31T09:10:01.282Z,36.91
2023-03-31T09:15:11.382Z,36.60
2023-03-31T09:20:22.696Z,35.61
2023-03-31T09:25:31.496Z,34.22
2023-03-31T09:30:35.905Z,33.35
2023-03-31T09:35:39.121Z,32.26
2023-03-31T09:40:42.736Z,31.24
2023-03-31T09:45:57.716Z,29.75
2023-03-31T09:51:14.229Z,30.48
2023-03-31T09:56:44.161Z,29.27
2023-03-31T10:01:53.795Z,28.23
2023-03-31T10:06:56.879Z,28.55
2023-03-31T10:12:05.249Z,28.70
2023-03-31T10:17:08.304Z,27.63
2023-03-31T10:22:43.848Z,27.75
2023-03-31T10:27:50.644Z,26.76
2023-03-31T10:32:54.705Z,27.08
2023-03-31T10:38:08.248Z,27.96
2023-03-31T10:43:21.329Z,27.22
2023-03-31T10:48:31.361Z,27.16
2023-03-31T10:53:45.507Z,27.52
2023-03-31T10:59:15.144Z,28.13
2023-03-31T11:04:26.623Z,27.46
2023-03-31T11:09:37.466Z,26.81
2023-03-31T11:14:58.607Z,26.57
2023-03-31T11:20:19.370Z,25.54
2023-03-31T11:25:43.920Z,26.34
2023-03-31T11:31:02.300Z,25.91
2023-03-31T11:36:20.797Z,26.70
2023-03-31T11:41:41.956Z,26.45
2023-03-31T11:47:03.820Z,27.06
2023-03-31T11:52:15.711Z,25.98
2023-03-31T11:57:28.018Z,25.64
2023-03-31T12:02:45.342Z,25.82
2023-03-31T12:07:59.561Z,25.09
2023-03-31T12:13:32.379Z,24.66
2023-03-31T12:18:43.425Z,24.16
2023-03-31T12:23:46.598Z,23.97
2023-03-31T12:28:51.225Z,23.84
2023-03-31T12:34:02.050Z,24.25
2023-03-31T12:39:26.824Z,25.60
2023-03-31T12:44:46.242Z,25.68
2023-03-31T12:50:12.172Z,26.56
2023-03-31T12:55:29.335Z,26.26
2023-03-31T13:00:32.180Z,26.26
2023-03-31T13:05:40.925Z,26.06
2023-03-31T13:10:59.649Z,26.11
2023-03-31T13:16:03.695Z,25.99
2023-03-31T13:21:08.747Z,26.28
2023-03-31T13:26:49.396Z,26.01
2023-03-31T13:32:01.091Z,25.00
2023-03-31T13:37:21.848Z,24.89
2023-03-31T13:42:42.210Z,25.64
2023-03-31T13:48:01.678Z,24.92
2023-03-31T13:53:04.546Z,24.62
2023-03-31T13:58:24.918Z,24.68
2023-03-31T14:03:51.909Z,24.54
2023-03-31T14:08:56.986Z,24.30
2023-03-31T14:14:00.185Z,24.08
2023-03-31T14:19:30.586Z,23.28
2023-03-31T14:24:37.301Z,23.15
2023-03-31T14:29:56.137Z,23.62
2023-03-31T14:35:03.983Z,23.35
2023-03-31T14:40:09.525Z,23.53
2023-03-31T14:45:20.937Z,23.03
2023-03-31T14:50:29.822Z,23.09
2023-03-31T14:55:49.399Z,22.01
2023-03-31T15:00:57.501Z,20.21
2023-03-31T15:06:02.023Z,19.43
2023-03-31T15:11:12.992Z,18.91
2023-03-31T15:16:42.866Z,19.21
2023-03-31T15:21:45.849Z,20.54
2023-03-31T15:27:01.315Z,21.81
2023-03-31T15:32:06.062Z,23.30
2023-03-31T15:37:08.593Z,22.60
2023-03-31T15:42:10.878Z,22.95
2023-03-31T15:47:32.076Z,23.14
2023-03-31T15:52:39.407Z,24.15
2023-03-31T15:57:45.352Z,23.05
2023-03-31T16:02:47.619Z,23.77
2023-03-31T16:07:50.141Z,22.69
2023-03-31T16:13:05.177Z,21.63
2023-03-31T16:18:25.135Z,22.50
2023-03-31T16:23:31.923Z,25.12
2023-03-31T16:28:37.187Z,26.32
2023-03-31T16:33:57.503Z,26.59
2023-03-31T16:39:02.213Z,27.51
2023-03-31T16:44:04.945Z,28.08
2023-03-31T16:49:07.414Z,28.29
2023-03-31T16:54:09.704Z,28.21
2023-03-31T16:59:12.109Z,28.37
2023-03-31T17:04:14.884Z,28.72
2023-03-31T17:09:17.170Z,28.61
2023-03-31T17:14:19.322Z,29.52
2023-03-31T17:19:22.291Z,29.51
2023-03-31T17:24:24.460Z,29.67
2023-03-31T17:29:27.694Z,30.02
2023-03-31T17:34:29.897Z,30.62
2023-03-31T17:39:32.047Z,31.53
2023-03-31T17:44:34.242Z,32.03
2023-03-31T17:49:36.576Z,31.99
2023-03-31T17:54:38.894Z,32.38
2023-03-31T17:59:41.084Z,33.78
2023-03-31T18:04:43.663Z,34.66
2023-03-31T18:09:46.240Z,35.29
2023-03-31T18:14:48.443Z,35.53
2023-03-31T18:19:50.894Z,36.26
2023-03-31T18:24:53.100Z,36.42
2023-03-31T18:29:55.516Z,36.61
2023-03-31T18:34:57.816Z,37.00
2023-03-31T18:39:59.960Z,37.62
2023-03-31T18:45:02.927Z,37.98
2023-03-31T18:50:07.360Z,37.97
2023-03-31T18:55:10.053Z,38.48
2023-03-31T19:00:13.136Z,37.80
2023-03-31T19:05:16.066Z,36.26
2023-03-31T19:10:18.314Z,36.91
2023-03-31T19:15:21.681Z,38.42
2023-03-31T19:20:23.896Z,39.08
2023-03-31T19:25:26.186Z,39.68
2023-03-31T19:30:28.506Z,40.54
2023-03-31T19:35:31.236Z,41.98
2023-03-31T19:40:33.872Z,42.63
2023-03-31T19:45:38.714Z,43.56
2023-03-31T19:50:41.199Z,43.47
2023-03-31T19:55:43.923Z,43.46
2023-03-31T20:00:46.504Z,43.48
2023-03-31T20:05:49.254Z,43.84
2023-03-31T20:10:51.517Z,43.86
2023-03-31T20:16:02.171Z,43.77
2023-03-31T20:21:11.779Z,42.82
2023-03-31T20:26:21.138Z,43.77
2023-03-31T20:31:29.196Z,44.19
2023-03-31T20:36:32.275Z,43.63
2023-03-31T20:41:37.565Z,43.06
2023-03-31T20:46:40.100Z,42.84
2023-03-31T20:51:42.947Z,42.22
2023-03-31T20:56:46.133Z,40.78
2023-03-31T21:01:49.781Z,41.29
2023-03-31T21:06:52.150Z,40.68
2023-03-31T21:11:54.427Z,40.64
2023-03-31T21:16:56.729Z,39.58
2023-03-31T21:21:58.959Z,39.60
2023-03-31T21:27:01.349Z,40.15
2023-03-31T21:32:03.592Z,40.04
2023-03-31T21:37:05.696Z,39.71
2023-03-31T21:42:08.040Z,40.19
2023-03-31T21:47:10.341Z,40.60
2023-03-31T21:52:12.537Z,40.69
2023-03-31T21:57:14.798Z,41.12
2023-03-31T22:02:17.416Z,41.35
2023-03-31T22:07:19.575Z,41.95
2023-03-31T22:12:21.877Z,40.77
2023-03-31T22:17:24.969Z,40.38
2023-03-31T22:22:27.377Z,40.48
2023-03-31T22:27:29.539Z,40.21
2023-03-31T22:32:31.772Z,39.84
2023-03-31T22:37:34.234Z,39.79
2023-03-31T22:42:36.987Z,39.52
2023-03-31T22:47:39.344Z,39.85
2023-03-31T22:52:41.836Z,39.53
2023-03-31T22:57:44.889Z,39.59
2023-03-31T23:02:47.063Z,39.88
2023-03-31T23:07:49.330Z,40.62
2023-03-31T23:12:51.657Z,39.90
2023-03-31T23:17:53.819Z,39.97
2023-03-31T23:22:57.162Z,41.44
2023-03-31T23:27:59.447Z,41.77
2023-03-31T23:33:01.767Z,41.82
2023-03-31T23:38:04.450Z,42.32
2023-03-31T23:43:06.644Z,42.65
2023-03-31T23:48:08.859Z,42.45
2023-03-31T23:53:12.004Z,41.89
2023-03-31T23:58:14.309Z,42.56
